createdAt,value
2023-07-24T00:01:57.407Z,98911.88
2023-07-24T00:04:24.686Z,98920.38
2023-07-24T00:06:53.321Z,98927.09
2023-07-24T00:09:20.501Z,98921.94
2023-07-24T00:11:47.799Z,98918.34
2023-07-24T00:14:16.423Z,98916.78
2023-07-24T00:16:43.710Z,98917.88
2023-07-24T00:19:10.977Z,98920.38
2023-07-24T00:21:38.203Z,98926.72
2023-07-24T00:24:07.016Z,98926.63
2023-07-24T00:26:34.282Z,98911.41
2023-07-24T00:29:01.529Z,98912.75
2023-07-24T00:31:28.754Z,98910.94
2023-07-24T00:33:55.941Z,98906.63
2023-07-24T00:36:23.254Z,98906.28
2023-07-24T00:38:50.482Z,98903.28
2023-07-24T00:41:19.062Z,98904.25
2023-07-24T00:43:46.282Z,98911.78
2023-07-24T00:46:14.504Z,98910.78
2023-07-24T00:48:42.338Z,98913.19
2023-07-24T00:51:09.542Z,98903.75
2023-07-24T00:53:36.865Z,98908.53
2023-07-24T00:56:05.574Z,98912.22
2023-07-24T00:58:34.421Z,98920.03
2023-07-24T01:01:01.721Z,98922.28
2023-07-24T01:03:34.302Z,98924.44
2023-07-24T01:06:02.930Z,98910.22
2023-07-24T01:08:30.393Z,98904.44
2023-07-24T01:11:00.903Z,98903.63
2023-07-24T01:13:33.684Z,98902.19
2023-07-24T01:16:09.907Z,98893.31
2023-07-24T01:18:39.777Z,98894.16
2023-07-24T01:21:10.060Z,98891.03
2023-07-24T01:23:51.514Z,98885.31
2023-07-24T01:26:20.593Z,98895.84
2023-07-24T01:28:47.809Z,98883.41
2023-07-24T01:31:14.980Z,98877.91
2023-07-24T01:33:43.810Z,98875.16
2023-07-24T01:36:11.866Z,98875.38
2023-07-24T01:38:39.376Z,98876.09
2023-07-24T01:41:07.060Z,98869.53
2023-07-24T01:43:35.820Z,98870.00
2023-07-24T01:46:03.073Z,98863.66
2023-07-24T01:48:30.322Z,98868.22
2023-07-24T01:50:57.538Z,98870.22
2023-07-24T01:53:24.751Z,98870.47
2023-07-24T01:55:51.985Z,98869.03
2023-07-24T01:58:19.241Z,98863.53
2023-07-24T02:00:48.435Z,98870.34
2023-07-24T02:03:15.827Z,98864.84
2023-07-24T02:05:50.392Z,98859.69
2023-07-24T02:08:17.630Z,98861.84
2023-07-24T02:10:45.009Z,98856.47
2023-07-24T02:13:12.179Z,98858.00
2023-07-24T02:15:50.150Z,98848.06
2023-07-24T02:18:17.454Z,98841.97
2023-07-24T02:20:49.997Z,98838.38
2023-07-24T02:23:18.580Z,98834.44
2023-07-24T02:25:45.884Z,98824.97
2023-07-24T02:28:13.090Z,98831.78
2023-07-24T02:30:40.409Z,98834.53
2023-07-24T02:33:09.037Z,98821.63
2023-07-24T02:35:39.817Z,98822.72
2023-07-24T02:38:08.636Z,98828.91
2023-07-24T02:40:36.936Z,98821.13
2023-07-24T02:43:04.129Z,98821.13
2023-07-24T02:45:34.647Z,98809.56
2023-07-24T02:48:02.046Z,98798.09
2023-07-24T02:50:30.682Z,98789.47
2023-07-24T02:52:57.891Z,98788.16
2023-07-24T02:55:25.265Z,98789.47
2023-07-24T02:57:52.739Z,98797.59
2023-07-24T03:00:20.112Z,98800.56
2023-07-24T03:02:47.359Z,98804.38
2023-07-24T03:05:14.670Z,98808.06
2023-07-24T03:07:43.302Z,98810.97
2023-07-24T03:10:10.931Z,98812.88
2023-07-24T03:12:38.233Z,98812.75
2023-07-24T03:15:06.593Z,98802.13
2023-07-24T03:17:33.896Z,98812.06
2023-07-24T03:20:09.265Z,98816.03
2023-07-24T03:22:36.549Z,98810.53
2023-07-24T03:25:05.777Z,98820.31
2023-07-24T03:27:33.028Z,98826.06
2023-07-24T03:30:00.419Z,98829.44
2023-07-24T03:32:27.816Z,98837.91
2023-07-24T03:34:55.080Z,98840.41
2023-07-24T03:37:22.327Z,98836.34
2023-07-24T03:39:50.202Z,98836.94
2023-07-24T03:42:27.538Z,98834.19
2023-07-24T03:44:55.604Z,98837.41
2023-07-24T03:47:23.077Z,98827.34
2023-07-24T03:49:50.432Z,98823.75
2023-07-24T03:52:17.707Z,98823.50
2023-07-24T03:54:45.217Z,98819.09
2023-07-24T03:57:12.459Z,98806.69
2023-07-24T03:59:41.013Z,98827.47
2023-07-24T04:02:10.676Z,98819.44
2023-07-24T04:04:38.369Z,98816.81
2023-07-24T04:07:05.881Z,98807.88
2023-07-24T04:09:33.331Z,98802.13
2023-07-24T04:12:01.957Z,98799.75
2023-07-24T04:14:29.213Z,98791.38
2023-07-24T04:16:57.846Z,98777.25
2023-07-24T04:19:25.039Z,98775.59
2023-07-24T04:21:52.317Z,98766.66
2023-07-24T04:24:19.606Z,98757.09
2023-07-24T04:26:47.339Z,98758.75
2023-07-24T04:29:14.530Z,98757.91
2023-07-24T04:31:41.727Z,98752.53
2023-07-24T04:34:10.283Z,98745.03
2023-07-24T04:36:37.488Z,98732.47
2023-07-24T04:39:04.665Z,98733.78
2023-07-24T04:41:31.939Z,98745.50
2023-07-24T04:43:59.145Z,98752.78
2023-07-24T04:46:26.417Z,98753.38
2023-07-24T04:48:53.676Z,98766.03
2023-07-24T04:51:22.193Z,98766.41
2023-07-24T04:53:49.428Z,98766.16
2023-07-24T04:56:16.686Z,98761.13
2023-07-24T04:58:43.952Z,98769.75
2023-07-24T05:01:11.151Z,98750.06
2023-07-24T05:03:38.398Z,98743.19
2023-07-24T05:06:05.631Z,98741.03
2023-07-24T05:08:34.318Z,98757.13
2023-07-24T05:11:01.559Z,98756.81
2023-07-24T05:13:28.823Z,98746.47
2023-07-24T05:15:56.030Z,98744.03
2023-07-24T05:18:23.348Z,98741.63
2023-07-24T05:20:50.720Z,98739.13
2023-07-24T05:23:18.188Z,98731.13
2023-07-24T05:25:46.883Z,98732.88
2023-07-24T05:28:14.056Z,98750.56
2023-07-24T05:30:41.279Z,98753.03
2023-07-24T05:33:08.517Z,98748.13
2023-07-24T05:35:37.343Z,98756.22
2023-07-24T05:38:04.584Z,98765.13
2023-07-24T05:40:31.876Z,98749.91
2023-07-24T05:43:00.462Z,98745.25
2023-07-24T05:45:27.817Z,98752.91
2023-07-24T05:47:55.079Z,98754.00
2023-07-24T05:50:22.327Z,98744.88
2023-07-24T05:52:49.541Z,98745.56
2023-07-24T05:55:16.775Z,98747.81
2023-07-24T05:57:43.967Z,98736.44
2023-07-24T06:00:13.266Z,98727.38
2023-07-24T06:02:40.440Z,98731.00
2023-07-24T06:05:08.515Z,98725.44
2023-07-24T06:07:35.802Z,98726.41
2023-07-24T06:10:03.367Z,98719.03
2023-07-24T06:12:30.544Z,98719.81
2023-07-24T06:14:57.789Z,98726.19
2023-07-24T06:17:26.424Z,98725.88
2023-07-24T06:19:53.703Z,98729.31
2023-07-24T06:22:20.973Z,98720.88
2023-07-24T06:24:48.206Z,98726.41
2023-07-24T06:27:15.493Z,98717.16
2023-07-24T06:29:42.986Z,98717.84
2023-07-24T06:32:10.233Z,98717.03
2023-07-24T06:34:38.841Z,98718.34
2023-07-24T06:37:17.103Z,98723.22
2023-07-24T06:39:49.204Z,98719.44
2023-07-24T06:42:16.434Z,98714.97
2023-07-24T06:44:43.690Z,98725.28
2023-07-24T06:47:10.957Z,98720.09
2023-07-24T06:49:39.560Z,98725.97
2023-07-24T06:52:07.432Z,98718.78
2023-07-24T06:54:34.656Z,98724.59
2023-07-24T06:57:01.915Z,98717.50
2023-07-24T06:59:29.152Z,98717.53
2023-07-24T07:01:56.415Z,98710.91
2023-07-24T07:04:23.633Z,98719.75
2023-07-24T07:06:52.295Z,98726.22
2023-07-24T07:09:19.713Z,98724.34
2023-07-24T07:11:46.939Z,98717.28
2023-07-24T07:14:14.244Z,98713.19
2023-07-24T07:16:41.638Z,98714.31
2023-07-24T07:19:08.862Z,98722.91
2023-07-24T07:21:36.351Z,98710.72
2023-07-24T07:24:05.551Z,98710.75
2023-07-24T07:26:32.993Z,98721.34
2023-07-24T07:29:00.429Z,98724.13
2023-07-24T07:31:27.656Z,98723.00
2023-07-24T07:33:54.966Z,98714.44
2023-07-24T07:36:22.309Z,98722.47
2023-07-24T07:38:49.780Z,98712.72
2023-07-24T07:41:18.428Z,98708.53
2023-07-24T07:43:45.662Z,98701.53
2023-07-24T07:46:12.969Z,98711.00
2023-07-24T07:48:40.175Z,98716.50
2023-07-24T07:51:07.419Z,98714.22
2023-07-24T07:53:34.655Z,98707.91
2023-07-24T07:56:01.997Z,98713.09
2023-07-24T07:58:31.020Z,98709.63
2023-07-24T08:00:58.320Z,98698.63
2023-07-24T08:03:25.746Z,98693.53
2023-07-24T08:05:53.044Z,98695.69
2023-07-24T08:08:20.227Z,98710.97
2023-07-24T08:10:47.446Z,98707.03
2023-07-24T08:13:14.789Z,98706.81
2023-07-24T08:15:43.372Z,98700.13
2023-07-24T08:18:10.672Z,98696.81
2023-07-24T08:20:38.364Z,98692.38
2023-07-24T08:23:05.627Z,98698.25
2023-07-24T08:25:32.940Z,98691.75
2023-07-24T08:28:05.727Z,98697.00
2023-07-24T08:30:33.434Z,98695.44
2023-07-24T08:33:02.056Z,98693.94
2023-07-24T08:35:30.111Z,98689.41
2023-07-24T08:37:57.574Z,98694.69
2023-07-24T08:40:25.039Z,98686.41
2023-07-24T08:42:53.607Z,98682.63
2023-07-24T08:45:21.377Z,98686.66
2023-07-24T08:47:50.882Z,98687.78
2023-07-24T08:50:20.562Z,98685.81
2023-07-24T08:52:47.886Z,98690.19
2023-07-24T08:55:15.900Z,98680.25
2023-07-24T08:57:43.168Z,98663.28
2023-07-24T09:00:11.620Z,98674.03
2023-07-24T09:02:39.119Z,98669.81
2023-07-24T09:05:06.710Z,98678.56
2023-07-24T09:07:35.296Z,98681.25
2023-07-24T09:10:02.595Z,98679.41
2023-07-24T09:12:29.794Z,98661.28
2023-07-24T09:15:06.221Z,98660.03
2023-07-24T09:17:34.404Z,98658.91
2023-07-24T09:20:01.797Z,98658.47
2023-07-24T09:22:29.072Z,98654.91
2023-07-24T09:24:59.109Z,98642.16
2023-07-24T09:27:28.591Z,98642.69
2023-07-24T09:29:56.438Z,98625.72
2023-07-24T09:32:24.855Z,98629.34
2023-07-24T09:34:53.149Z,98608.19
2023-07-24T09:37:27.611Z,98616.53
2023-07-24T09:39:55.207Z,98625.06
2023-07-24T09:42:34.067Z,98618.25
2023-07-24T09:45:02.264Z,98615.84
2023-07-24T09:47:52.984Z,98614.16
2023-07-24T09:50:17.022Z,98606.31
2023-07-24T09:52:45.459Z,98590.56
2023-07-24T09:55:19.987Z,98585.47
2023-07-24T09:57:50.989Z,98574.06
2023-07-24T10:00:18.482Z,98572.25
2023-07-24T10:02:45.980Z,98568.06
2023-07-24T10:05:13.439Z,98573.19
2023-07-24T10:07:41.490Z,98574.94
2023-07-24T10:10:09.601Z,98560.03
2023-07-24T10:12:37.864Z,98566.06
2023-07-24T10:15:08.000Z,98568.91
2023-07-24T10:17:36.809Z,98563.38
2023-07-24T10:20:05.958Z,98578.19
2023-07-24T10:22:33.598Z,98582.38
2023-07-24T10:25:01.049Z,98585.06
2023-07-24T10:27:28.325Z,98588.78
2023-07-24T10:30:00.130Z,98587.75
2023-07-24T10:32:28.842Z,98582.84
2023-07-24T10:35:00.853Z,98581.66
2023-07-24T10:37:35.537Z,98571.03
2023-07-24T10:40:03.630Z,98564.00
2023-07-24T10:42:31.389Z,98574.66
2023-07-24T10:45:06.358Z,98570.53
2023-07-24T10:47:35.200Z,98575.19
2023-07-24T10:50:02.883Z,98580.97
2023-07-24T10:52:30.821Z,98579.44
2023-07-24T10:55:00.776Z,98572.53
2023-07-24T10:57:28.400Z,98568.44
2023-07-24T10:59:55.728Z,98570.75
2023-07-24T11:02:23.323Z,98565.78
2023-07-24T11:04:52.060Z,98567.72
2023-07-24T11:07:19.821Z,98562.69
2023-07-24T11:09:47.060Z,98577.88
2023-07-24T11:12:15.971Z,98567.31
2023-07-24T11:14:50.236Z,98565.97
2023-07-24T11:17:18.208Z,98564.88
2023-07-24T11:19:45.427Z,98548.41
2023-07-24T11:22:15.033Z,98554.63
2023-07-24T11:24:44.139Z,98544.97
2023-07-24T11:27:13.882Z,98561.47
2023-07-24T11:29:41.088Z,98556.16
2023-07-24T11:32:08.663Z,98554.97
2023-07-24T11:34:36.207Z,98538.19
2023-07-24T11:37:03.947Z,98537.41
2023-07-24T11:39:32.546Z,98548.13
2023-07-24T11:42:01.594Z,98557.97
2023-07-24T11:44:29.816Z,98541.53
2023-07-24T11:47:03.579Z,98542.19
2023-07-24T11:49:31.552Z,98545.75
2023-07-24T11:52:03.827Z,98531.75
2023-07-24T11:54:35.272Z,98526.41
2023-07-24T11:57:02.577Z,98521.88
2023-07-24T11:59:37.752Z,98533.97
2023-07-24T12:02:05.675Z,98529.81
2023-07-24T12:04:33.011Z,98521.09
2023-07-24T12:07:00.296Z,98522.78
2023-07-24T12:09:32.271Z,98505.28
2023-07-24T12:12:00.186Z,98511.13
2023-07-24T12:14:27.358Z,98503.66
2023-07-24T12:17:01.668Z,98500.28
2023-07-24T12:19:28.996Z,98499.31
2023-07-24T12:21:56.515Z,98493.06
2023-07-24T12:24:24.052Z,98504.31
2023-07-24T12:26:52.629Z,98499.28
2023-07-24T12:29:19.821Z,98500.28
2023-07-24T12:31:47.010Z,98487.91
2023-07-24T12:34:14.241Z,98495.44
2023-07-24T12:36:41.475Z,98482.06
2023-07-24T12:39:08.661Z,98486.38
2023-07-24T12:41:35.936Z,98480.47
2023-07-24T12:44:04.772Z,98482.94
2023-07-24T12:46:32.073Z,98475.44
2023-07-24T12:48:59.348Z,98472.38
2023-07-24T12:51:26.655Z,98465.09
2023-07-24T12:54:03.889Z,98459.84
2023-07-24T12:56:38.947Z,98459.16
2023-07-24T12:59:07.742Z,98449.78
2023-07-24T13:01:35.086Z,98454.16
2023-07-24T13:04:02.511Z,98450.59
2023-07-24T13:06:29.913Z,98437.59
2023-07-24T13:08:57.392Z,98443.19
2023-07-24T13:11:24.634Z,98441.22
2023-07-24T13:13:51.871Z,98434.94
2023-07-24T13:16:20.586Z,98436.13
2023-07-24T13:18:47.879Z,98424.00
2023-07-24T13:21:15.203Z,98419.41
2023-07-24T13:23:42.786Z,98404.97
2023-07-24T13:26:10.028Z,98425.25
2023-07-24T13:28:37.370Z,98417.53
2023-07-24T13:31:12.715Z,98413.28
2023-07-24T13:33:42.777Z,98398.91
2023-07-24T13:36:10.297Z,98386.09
2023-07-24T13:38:37.914Z,98378.63
2023-07-24T13:41:05.326Z,98376.44
2023-07-24T13:43:33.771Z,98372.59
2023-07-24T13:46:01.179Z,98374.16
2023-07-24T13:48:28.585Z,98355.47
2023-07-24T13:50:57.356Z,98351.06
2023-07-24T13:53:24.732Z,98333.25
2023-07-24T13:55:52.214Z,98334.91
2023-07-24T13:58:19.449Z,98331.72
2023-07-24T14:00:46.696Z,98314.94
2023-07-24T14:03:14.073Z,98328.44
2023-07-24T14:05:41.342Z,98311.28
2023-07-24T14:08:10.042Z,98308.34
2023-07-24T14:10:37.365Z,98314.75
2023-07-24T14:13:04.745Z,98317.66
2023-07-24T14:15:31.957Z,98314.09
2023-07-24T14:17:59.273Z,98320.00
2023-07-24T14:20:26.553Z,98308.34
2023-07-24T14:22:53.779Z,98309.88
2023-07-24T14:25:22.446Z,98317.41
2023-07-24T14:27:49.631Z,98326.47
2023-07-24T14:30:17.240Z,98325.31
2023-07-24T14:32:44.567Z,98334.81
2023-07-24T14:35:12.068Z,98325.19
2023-07-24T14:37:39.288Z,98297.09
2023-07-24T14:40:07.721Z,98287.63
2023-07-24T14:42:36.247Z,98308.25
2023-07-24T14:45:03.942Z,98320.03
2023-07-24T14:47:31.211Z,98309.44
2023-07-24T14:49:58.908Z,98311.28
2023-07-24T14:52:26.186Z,98320.72
2023-07-24T14:54:53.454Z,98308.13
2023-07-24T14:57:25.631Z,98372.91
2023-07-24T14:59:54.970Z,98357.69
2023-07-24T15:02:22.310Z,98342.13
2023-07-24T15:04:49.899Z,98333.50
2023-07-24T15:07:17.795Z,98330.09
2023-07-24T15:09:45.659Z,98346.75
2023-07-24T15:12:12.978Z,98354.66
2023-07-24T15:14:40.245Z,98357.44
2023-07-24T15:17:08.900Z,98357.00
2023-07-24T15:19:36.092Z,98380.69
2023-07-24T15:22:03.299Z,98369.47
2023-07-24T15:24:30.492Z,98361.94
2023-07-24T15:26:57.710Z,98355.16
2023-07-24T15:29:24.951Z,98350.78
2023-07-24T15:31:52.246Z,98360.88
2023-07-24T15:34:20.890Z,98365.31
2023-07-24T15:36:48.079Z,98368.81
2023-07-24T15:39:15.308Z,98366.69
2023-07-24T15:41:42.605Z,98372.91
2023-07-24T15:44:09.842Z,98368.19
2023-07-24T15:46:37.162Z,98355.31
2023-07-24T15:49:04.466Z,98326.03
2023-07-24T15:51:33.460Z,98315.22
2023-07-24T15:54:00.991Z,98341.44
2023-07-24T15:56:28.184Z,98352.03
2023-07-24T15:58:55.387Z,98360.22
2023-07-24T16:01:22.654Z,98354.91
2023-07-24T16:03:49.909Z,98337.19
2023-07-24T16:06:17.122Z,98358.63
2023-07-24T16:08:45.710Z,98375.69
2023-07-24T16:11:12.979Z,98358.88
2023-07-24T16:13:41.722Z,98327.25
2023-07-24T16:16:09.325Z,98341.31
2023-07-24T16:18:37.093Z,98374.88
2023-07-24T16:21:04.519Z,98411.75
2023-07-24T16:23:31.770Z,98432.34
2023-07-24T16:26:00.382Z,98415.13
2023-07-24T16:28:27.721Z,98451.41
2023-07-24T16:30:54.974Z,98447.38
2023-07-24T16:33:23.989Z,98433.19
2023-07-24T16:35:51.870Z,98429.69
2023-07-24T16:38:19.183Z,98419.53
2023-07-24T16:40:46.401Z,98416.56
2023-07-24T16:43:14.942Z,98409.75
2023-07-24T16:45:42.795Z,98399.22
2023-07-24T16:48:10.316Z,98389.84
2023-07-24T16:50:37.608Z,98400.34
2023-07-24T16:53:04.832Z,98404.81
2023-07-24T16:55:32.111Z,98404.25
2023-07-24T16:57:59.404Z,98395.97
2023-07-24T17:00:27.968Z,98414.78
2023-07-24T17:02:56.297Z,98411.72
2023-07-24T17:05:23.744Z,98419.22
2023-07-24T17:07:50.974Z,98428.91
2023-07-24T17:10:19.140Z,98427.50
2023-07-24T17:12:46.516Z,98421.97
2023-07-24T17:15:13.949Z,98426.13
2023-07-24T17:17:42.595Z,98417.56
2023-07-24T17:20:10.265Z,98417.25
2023-07-24T17:22:37.553Z,98409.78
2023-07-24T17:25:05.276Z,98413.09
2023-07-24T17:27:32.572Z,98396.50
2023-07-24T17:29:59.834Z,98401.19
2023-07-24T17:32:27.099Z,98409.78
2023-07-24T17:34:55.789Z,98400.38
2023-07-24T17:37:36.490Z,98394.53
2023-07-24T17:40:06.590Z,98397.31
2023-07-24T17:42:33.903Z,98406.16
2023-07-24T17:45:01.142Z,98405.59
2023-07-24T17:47:28.473Z,98403.91
2023-07-24T17:50:06.612Z,98410.56
2023-07-24T17:52:35.737Z,98411.09
2023-07-24T17:55:03.931Z,98417.19
2023-07-24T17:57:31.158Z,98411.88
2023-07-24T17:59:58.356Z,98425.41
2023-07-24T18:02:25.684Z,98428.13
2023-07-24T18:04:52.918Z,98428.94
2023-07-24T18:07:21.559Z,98433.59
2023-07-24T18:09:48.838Z,98439.66
2023-07-24T18:12:16.451Z,98443.53
2023-07-24T18:14:43.807Z,98439.41
2023-07-24T18:17:11.152Z,98446.31
2023-07-24T18:19:38.348Z,98445.53
2023-07-24T18:22:05.629Z,98460.03
2023-07-24T18:24:34.290Z,98485.88
2023-07-24T18:27:01.515Z,98470.81
2023-07-24T18:29:28.936Z,98465.00
2023-07-24T18:31:56.391Z,98472.19
2023-07-24T18:34:23.613Z,98481.00
2023-07-24T18:36:50.950Z,98489.28
2023-07-24T18:39:18.215Z,98487.00
2023-07-24T18:41:47.830Z,98488.97
2023-07-24T18:44:15.212Z,98496.63
2023-07-24T18:46:42.587Z,98493.03
2023-07-24T18:49:09.900Z,98509.84
2023-07-24T18:51:37.083Z,98514.28
2023-07-24T18:54:04.320Z,98522.81
2023-07-24T18:56:31.590Z,98520.31
2023-07-24T18:59:00.151Z,98526.09
2023-07-24T19:01:27.543Z,98525.59
2023-07-24T19:03:54.785Z,98534.38
2023-07-24T19:06:22.204Z,98538.81
2023-07-24T19:08:49.837Z,98538.25
2023-07-24T19:11:17.871Z,98545.44
2023-07-24T19:13:45.359Z,98545.16
2023-07-24T19:16:14.006Z,98549.75
2023-07-24T19:18:41.327Z,98539.91
2023-07-24T19:21:08.576Z,98543.72
2023-07-24T19:23:36.026Z,98542.78
2023-07-24T19:26:03.270Z,98547.63
2023-07-24T19:28:30.551Z,98547.19
2023-07-24T19:30:57.785Z,98560.78
2023-07-24T19:33:26.449Z,98558.19
2023-07-24T19:35:58.547Z,98560.53
2023-07-24T19:38:25.744Z,98573.09
2023-07-24T19:40:56.599Z,98569.59
2023-07-24T19:43:23.840Z,98573.38
2023-07-24T19:45:51.272Z,98581.75
2023-07-24T19:48:18.612Z,98589.09
2023-07-24T19:50:51.343Z,98595.66
2023-07-24T19:53:18.836Z,98600.63
2023-07-24T19:55:47.102Z,98610.22
2023-07-24T19:58:26.533Z,98609.03
2023-07-24T20:01:00.047Z,98618.03
2023-07-24T20:03:27.580Z,98617.81
2023-07-24T20:05:58.087Z,98616.31
2023-07-24T20:08:27.827Z,98622.91
2023-07-24T20:10:56.181Z,98633.56
2023-07-24T20:13:24.002Z,98642.59
2023-07-24T20:15:51.476Z,98642.25
2023-07-24T20:18:18.749Z,98640.97
2023-07-24T20:20:46.122Z,98646.31
2023-07-24T20:23:15.966Z,98648.38
2023-07-24T20:25:47.762Z,98647.91
2023-07-24T20:28:15.058Z,98646.03
2023-07-24T20:30:42.312Z,98652.75
2023-07-24T20:33:09.678Z,98652.50
2023-07-24T20:35:36.891Z,98659.09
2023-07-24T20:38:05.406Z,98660.09
2023-07-24T20:40:34.921Z,98645.00
2023-07-24T20:43:03.189Z,98651.97
2023-07-24T20:45:30.584Z,98647.69
2023-07-24T20:47:58.031Z,98652.47
2023-07-24T20:50:25.299Z,98647.25
2023-07-24T20:52:52.579Z,98642.72
2023-07-24T20:55:19.836Z,98638.06
2023-07-24T20:57:48.453Z,98645.47
2023-07-24T21:00:16.140Z,98641.78
2023-07-24T21:02:43.650Z,98650.75
2023-07-24T21:05:11.058Z,98655.50
2023-07-24T21:07:38.265Z,98653.50
2023-07-24T21:10:06.425Z,98650.13
2023-07-24T21:12:33.646Z,98645.84
2023-07-24T21:15:02.932Z,98655.97
2023-07-24T21:17:30.224Z,98664.06
2023-07-24T21:19:57.445Z,98670.03
2023-07-24T21:22:24.669Z,98661.91
2023-07-24T21:24:51.883Z,98662.00
2023-07-24T21:27:19.133Z,98677.66
2023-07-24T21:29:46.369Z,98680.88
2023-07-24T21:32:14.986Z,98675.25
2023-07-24T21:34:42.176Z,98679.53
2023-07-24T21:37:09.373Z,98676.28
2023-07-24T21:39:36.565Z,98675.91
2023-07-24T21:42:04.289Z,98671.97
2023-07-24T21:44:31.459Z,98665.84
2023-07-24T21:46:58.677Z,98676.47
2023-07-24T21:49:27.294Z,98675.28
2023-07-24T21:51:54.527Z,98677.16
2023-07-24T21:54:21.724Z,98684.56
2023-07-24T21:56:48.997Z,98694.69
2023-07-24T21:59:16.303Z,98693.94
2023-07-24T22:01:43.615Z,98691.22
2023-07-24T22:04:10.876Z,98690.00
2023-07-24T22:06:39.482Z,98695.97
2023-07-24T22:09:06.680Z,98693.44
2023-07-24T22:11:34.231Z,98703.56
2023-07-24T22:14:01.595Z,98689.72
2023-07-24T22:16:28.828Z,98703.66
2023-07-24T22:18:56.033Z,98703.66
2023-07-24T22:21:23.230Z,98705.81
2023-07-24T22:23:51.838Z,98707.94
2023-07-24T22:26:19.558Z,98707.94
2023-07-24T22:28:46.805Z,98700.41
2023-07-24T22:31:14.060Z,98704.06
2023-07-24T22:33:41.350Z,98708.94
2023-07-24T22:36:08.609Z,98713.44
2023-07-24T22:38:35.807Z,98706.72
2023-07-24T22:41:11.257Z,98707.81
2023-07-24T22:43:38.496Z,98715.19
2023-07-24T22:46:05.798Z,98718.28
2023-07-24T22:48:33.099Z,98729.03
2023-07-24T22:51:00.343Z,98722.75
2023-07-24T22:53:27.606Z,98725.47
2023-07-24T22:55:54.882Z,98729.03
2023-07-24T22:58:23.927Z,98727.75
2023-07-24T23:00:51.148Z,98730.72
2023-07-24T23:03:18.460Z,98725.84
2023-07-24T23:05:45.743Z,98731.94
2023-07-24T23:08:12.970Z,98727.28
2023-07-24T23:10:40.238Z,98732.69
2023-07-24T23:13:07.463Z,98729.50
2023-07-24T23:15:36.051Z,98744.44
2023-07-24T23:18:03.579Z,98742.50
2023-07-24T23:20:30.877Z,98739.94
2023-07-24T23:22:58.433Z,98747.03
2023-07-24T23:25:25.621Z,98745.84
2023-07-24T23:27:52.849Z,98744.31
2023-07-24T23:30:20.051Z,98739.47
2023-07-24T23:32:48.705Z,98745.09
2023-07-24T23:35:16.081Z,98745.94
2023-07-24T23:37:43.300Z,98733.16
2023-07-24T23:40:11.092Z,98733.06
2023-07-24T23:42:38.318Z,98736.44
2023-07-24T23:45:06.364Z,98735.38
2023-07-24T23:47:33.628Z,98735.97
2023-07-24T23:50:02.313Z,98736.34
2023-07-24T23:52:29.483Z,98735.66
2023-07-24T23:54:56.751Z,98737.69
2023-07-24T23:57:24.107Z,98735.91
2023-07-24T23:59:51.281Z,98723.84
